Time;durP1;ratioP1;P1;durP2;ratioP2;P2;SDS_P1;SDS_P2;PMS_P1;PMS_P2;Temp;Humidity;BMP_temperature;BMP_pressure;BME280_temperature;BME280_humidity;BME280_pressure;Samples;Min_cycle;Max_cycle;Signal;HPM_P1;HPM_P2
2022/11/07 00:03:33;;;;;;;0.90;0.50;;;;;;;;;;20944818;28;20266;-69
2022/11/07 00:13:36;;;;;;;0.60;0.40;;;;;;;;;;20959988;28;20605;-69
2022/11/07 00:23:41;;;;;;;0.67;0.47;;;;;;;;;;20959519;28;20248;-68
2022/11/07 00:33:43;;;;;;;0.97;0.60;;;;;;;;;;20938454;28;20221;-68
2022/11/07 00:43:46;;;;;;;0.47;0.27;;;;;;;;;;20924046;28;20274;-68
2022/11/07 00:53:47;;;;;;;2.43;0.60;;;;;;;;;;20931895;28;20229;-68
2022/11/07 01:14:11;;;;;;;2.60;0.50;;;9.30;99.90;;;;;;20957511;28;20704;-68
2022/11/07 01:24:14;;;;;;;1.23;0.60;;;;;;;;;;20954176;28;20596;-68
2022/11/07 01:34:17;;;;;;;1.03;0.70;;;;;;;;;;20937411;28;20288;-68
2022/11/07 01:44:19;;;;;;;1.80;0.50;;;;;;;;;;20920564;28;20263;-68
2022/11/07 01:54:22;;;;;;;0.70;0.40;;;;;;;;;;20936453;28;20688;-68
2022/11/07 02:04:26;;;;;;;1.17;0.70;;;9.30;99.90;;;;;;20936132;28;20624;-68
2022/11/07 02:14:29;;;;;;;1.23;0.40;;;;;;;;;;20884467;22;20229;-68
2022/11/07 02:24:34;;;;;;;1.03;0.40;;;9.30;99.90;;;;;;20867941;28;20206;-68
2022/11/07 02:34:36;;;;;;;0.53;0.33;;;;;;;;;;20851777;28;20226;-68
2022/11/07 02:44:39;;;;;;;0.83;0.50;;;;;;;;;;20883964;28;20217;-68
2022/11/07 02:54:41;;;;;;;1.53;0.70;;;;;;;;;;20851214;28;20218;-69
2022/11/07 03:04:42;;;;;;;0.70;0.40;;;;;;;;;;20872636;28;20575;-68
2022/11/07 03:14:44;;;;;;;1.93;0.53;;;;;;;;;;20910961;28;20226;-68
2022/11/07 03:24:46;;;;;;;1.20;0.40;;;;;;;;;;20946030;28;20221;-68
2022/11/07 03:34:48;;;;;;;0.93;0.43;;;;;;;;;;20939978;28;20271;-68
2022/11/07 03:44:50;;;;;;;1.90;0.60;;;;;;;;;;20961739;28;20217;-68
2022/11/07 03:54:52;;;;;;;1.63;0.57;;;;;;;;;;20961332;28;20760;-68
2022/11/07 04:04:55;;;;;;;3.80;0.53;;;;;;;;;;20960088;28;20606;-68
2022/11/07 04:25:17;;;;;;;0.73;0.33;;;;;;;;;;20961417;28;20687;-68
2022/11/07 04:35:20;;;;;;;1.73;0.93;;;;;;;;;;20871286;28;20222;-68
2022/11/07 04:45:22;;;;;;;0.50;0.30;;;;;;;;;;20871183;28;20233;-69
2022/11/07 04:55:25;;;;;;;1.57;0.40;;;;;;;;;;20856773;28;20265;-69
2022/11/07 05:05:27;;;;;;;0.70;0.30;;;;;;;;;;20856608;28;20222;-69
2022/11/07 05:15:29;;;;;;;0.70;0.40;;;;;;;;;;20865799;28;20221;-68
2022/11/07 05:25:31;;;;;;;0.97;0.40;;;;;;;;;;20870816;28;20257;-68
2022/11/07 05:35:33;;;;;;;6.17;0.70;;;;;;;;;;20855371;28;20218;-67
2022/11/07 05:45:40;;;;;;;1.17;0.50;;;9.70;99.90;;;;;;20872389;28;20264;-67
2022/11/07 05:55:42;;;;;;;0.87;0.40;;;;;;;;;;20853408;28;20287;-67
2022/11/07 06:05:44;;;;;;;0.57;0.37;;;;;;;;;;20854053;28;20326;-67
2022/11/07 06:15:46;;;;;;;0.63;0.40;;;10.00;99.90;;;;;;20852857;28;20267;-68
2022/11/07 06:25:50;;;;;;;2.03;0.30;;;;;;;;;;20869195;28;20259;-68
2022/11/07 06:35:52;;;;;;;0.77;0.40;;;;;;;;;;20838991;28;20797;-67
2022/11/07 06:45:54;;;;;;;0.80;0.40;;;;;;;;;;20846255;28;20263;-75
2022/11/07 06:55:56;;;;;;;0.67;0.40;;;;;;;;;;20850683;28;20248;-76
2022/11/07 07:06:03;;;;;;;2.30;0.40;;;10.00;99.90;;;;;;20865463;28;20210;-67
2022/11/07 07:16:06;;;;;;;0.57;0.40;;;;;;;;;;20897681;28;20234;-67
2022/11/07 07:26:13;;;;;;;1.83;0.30;;;10.10;99.90;;;;;;20865143;28;20622;-67
2022/11/07 07:36:15;;;;;;;1.40;0.60;;;;;;;;;;20864150;28;20252;-67
2022/11/07 07:46:19;;;;;;;0.70;0.50;;;;;;;;;;20879254;28;20225;-67
2022/11/07 07:56:21;;;;;;;1.43;0.57;;;;;;;;;;20878567;28;20222;-67
2022/11/07 08:06:23;;;;;;;1.40;0.60;;;;;;;;;;20862128;28;20264;-67
2022/11/07 08:16:25;;;;;;;2.77;0.50;;;;;;;;;;20821227;23;20351;-67
2022/11/07 08:26:27;;;;;;;0.80;0.50;;;;;;;;;;20751443;28;20223;-67
2022/11/07 08:36:29;;;;;;;1.90;0.60;;;;;;;;;;20745318;28;20234;-67
2022/11/07 08:46:31;;;;;;;1.40;0.33;;;;;;;;;;20791364;28;20296;-67
2022/11/07 08:56:33;;;;;;;1.17;0.60;;;10.40;99.90;;;;;;20765554;28;20227;-66
2022/11/07 09:06:35;;;;;;;0.87;0.50;;;;;;;;;;20757738;28;20687;-66
2022/11/07 09:16:37;;;;;;;1.40;0.40;;;;;;;;;;20773947;28;20230;-66
2022/11/07 09:26:39;;;;;;;2.90;0.47;;;;;;;;;;20770546;28;20295;-66
2022/11/07 09:36:41;;;;;;;1.43;0.30;;;;;;;;;;20802638;28;20230;-66
2022/11/07 09:46:43;;;;;;;1.30;0.50;;;;;;;;;;20787863;28;20744;-66
2022/11/07 09:56:46;;;;;;;1.93;0.70;;;;;;;;;;20804330;28;20303;-66
2022/11/07 10:06:54;;;;;;;0.97;0.43;;;;;;;;;;20787626;28;20608;-66
2022/11/07 10:17:07;;;;;;;1.10;0.47;;;11.40;99.90;;;;;;20787236;28;20222;-66
2022/11/07 10:27:10;;;;;;;1.63;0.53;;;;;;;;;;20785081;28;20222;-66
2022/11/07 10:37:12;;;;;;;3.23;0.60;;;;;;;;;;20788079;28;20222;-66
2022/11/07 10:47:24;;;;;;;1.77;0.50;;;;;;;;;;20783618;28;20218;-66
2022/11/07 10:57:29;;;;;;;2.10;0.77;;;12.20;99.90;;;;;;20877754;28;20742;-66
2022/11/07 11:07:36;;;;;;;2.30;0.40;;;;;;;;;;20899423;28;20222;-66
2022/11/07 11:17:39;;;;;;;0.40;0.33;;;;;;;;;;20866398;28;20233;-67
2022/11/07 11:27:40;;;;;;;0.67;0.40;;;;;;;;;;20865626;28;20572;-66
2022/11/07 11:37:48;;;;;;;2.10;0.40;;;12.20;99.90;;;;;;20881049;28;20214;-66
2022/11/07 11:48:01;;;;;;;3.27;1.20;;;;;;;;;;20879790;28;20242;-66
2022/11/07 11:58:17;;;;;;;1.97;0.47;;;12.50;99.90;;;;;;20863330;28;20201;-66
2022/11/07 12:08:25;;;;;;;2.17;0.70;;;;;;;;;;20862251;28;20221;-66
2022/11/07 12:18:52;;;;;;;1.27;0.60;;;12.50;99.90;;;;;;20919747;28;20213;-65
2022/11/07 12:29:00;;;;;;;2.47;0.50;;;;;;;;;;20886905;28;20260;-66
2022/11/07 12:39:17;;;;;;;1.03;0.70;;;;;;;;;;20913939;28;20221;-66
2022/11/07 12:49:37;;;;;;;1.40;0.50;;;;;;;;;;20871901;28;20225;-66
2022/11/07 12:59:40;;;;;;;3.03;0.70;;;;;;;;;;20829918;28;20280;-66
2022/11/07 13:10:12;;;;;;;1.60;0.57;;;;;;;;;;20827131;28;20228;-66
2022/11/07 13:20:20;;;;;;;3.00;0.70;;;;;;;;;;20957281;28;20221;-66
2022/11/07 13:30:29;;;;;;;1.93;0.60;;;12.40;99.90;;;;;;20938445;28;20216;-65
2022/11/07 13:40:35;;;;;;;0.97;0.50;;;12.50;99.90;;;;;;20894847;28;20229;-66
2022/11/07 13:50:41;;;;;;;1.60;0.63;;;;;;;;;;20859736;28;20637;-66
2022/11/07 14:00:43;;;;;;;1.07;0.60;;;;;;;;;;20846189;28;20210;-66
2022/11/07 14:10:48;;;;;;;1.13;0.63;;;;;;;;;;20875745;22;20237;31
2022/11/07 14:20:53;;;;;;;3.23;0.80;;;12.90;99.90;;;;;;20814356;28;20233;-68
2022/11/07 14:30:55;;;;;;;0.77;0.30;;;;;;;;;;20851847;28;20222;-68
2022/11/07 14:40:59;;;;;;;2.00;0.60;;;;;;;;;;20780734;28;20218;-68
2022/11/07 14:51:02;;;;;;;2.20;0.87;;;;;;;;;;20757145;28;20218;-68
2022/11/07 15:01:07;;;;;;;2.70;0.50;;;;;;;;;;20757537;28;20218;-68
2022/11/07 15:11:15;;;;;;;4.40;0.50;;;;;;;;;;20772649;28;20250;-68
2022/11/07 15:21:32;;;;;;;6.10;1.13;;;;;;;;;;20761389;28;20422;-68
2022/11/07 15:31:35;;;;;;;1.83;0.80;;;13.70;99.90;;;;;;20771373;28;20273;-68
2022/11/07 15:41:37;;;;;;;0.47;0.30;;;;;;;;;;20775472;28;20693;-68
2022/11/07 15:51:39;;;;;;;3.10;0.63;;;;;;;;;;20778606;28;20288;-68
2022/11/07 16:01:41;;;;;;;3.67;0.70;;;;;;;;;;20789151;28;20227;-68
2022/11/07 16:11:43;;;;;;;3.47;0.50;;;12.60;99.90;;;;;;20794386;28;20639;-68
2022/11/07 16:21:46;;;;;;;2.80;0.70;;;;;;;;;;20776477;28;20265;-68
2022/11/07 16:31:49;;;;;;;1.87;0.43;;;;;;;;;;20791954;28;20585;-68
2022/11/07 16:41:51;;;;;;;3.47;1.00;;;;;;;;;;20791862;28;20206;-68
2022/11/07 16:51:53;;;;;;;3.17;0.50;;;;;;;;;;20791079;28;20637;-68
2022/11/07 17:01:56;;;;;;;5.70;0.97;;;;;;;;;;20789793;28;20214;-68
2022/11/07 17:11:58;;;;;;;1.20;0.60;;;;;;;;;;20772494;28;20230;-68
2022/11/07 17:22:01;;;;;;;3.73;0.80;;;12.40;99.90;;;;;;20781773;28;20895;-70
2022/11/07 17:32:04;;;;;;;2.30;0.70;;;12.50;99.90;;;;;;20840819;28;20221;-69
2022/11/07 17:42:07;;;;;;;1.07;0.50;;;;;;;;;;20840865;28;20299;-69
2022/11/07 17:52:09;;;;;;;1.03;0.50;;;;;;;;;;20849263;28;20279;-68
2022/11/07 18:02:15;;;;;;;2.73;0.77;;;;;;;;;;20864735;28;20280;-70
2022/11/07 18:12:17;;;;;;;1.77;0.77;;;;;;;;;;20821730;28;20683;-70
2022/11/07 18:22:19;;;;;;;1.03;0.60;;;;;;;;;;20864223;28;20218;-70
2022/11/07 18:32:22;;;;;;;0.80;0.50;;;;;;;;;;20847680;28;20229;-70
2022/11/07 18:42:24;;;;;;;1.03;0.50;;;;;;;;;;20845998;28;20574;-70
2022/11/07 18:52:30;;;;;;;1.30;0.70;;;;;;;;;;20843983;28;20261;-69
2022/11/07 19:02:33;;;;;;;0.40;0.40;;;;;;;;;;20889454;28;20221;-70
2022/11/07 19:12:35;;;;;;;2.00;0.60;;;;;;;;;;20866305;28;20230;-70
2022/11/07 19:22:37;;;;;;;1.20;0.70;;;;;;;;;;20775664;28;20218;-70
2022/11/07 19:32:39;;;;;;;0.97;0.60;;;;;;;;;;20824969;28;20685;-70
2022/11/07 19:42:41;;;;;;;1.20;0.70;;;;;;;;;;20793877;28;20277;-70
2022/11/07 19:52:43;;;;;;;2.93;1.20;;;;;;;;;;20774975;28;20214;-70
2022/11/07 20:02:48;;;;;;;1.67;0.67;;;;;;;;;;20772413;28;20575;-70
2022/11/07 20:12:50;;;;;;;1.47;0.63;;;;;;;;;;20771343;28;20218;-70
2022/11/07 20:22:52;;;;;;;1.70;0.80;;;;;;;;;;20792277;28;20218;-69
2022/11/07 20:32:54;;;;;;;3.07;1.30;;;;;;;;;;20860261;28;20238;-70
2022/11/07 20:42:59;;;;;;;2.37;1.20;;;;;;;;;;20890270;28;20218;-70
2022/11/07 20:53:00;;;;;;;1.97;1.00;;;;;;;;;;20873976;28;20280;-70
2022/11/07 21:03:02;;;;;;;1.37;0.80;;;11.60;99.90;;;;;;20873373;28;20206;-70
2022/11/07 21:13:04;;;;;;;3.00;0.90;;;;;;;;;;20874603;28;20295;-69
2022/11/07 21:23:08;;;;;;;2.27;1.20;;;11.50;99.90;;;;;;20871982;28;20218;-70
2022/11/07 21:33:11;;;;;;;4.27;1.33;;;;;;;;;;20839433;28;20230;-70
2022/11/07 21:43:13;;;;;;;3.27;1.60;;;11.40;99.90;;;;;;20870654;28;20217;-70
2022/11/07 21:53:15;;;;;;;1.83;1.17;;;;;;;;;;20854239;28;20221;-70
2022/11/07 22:03:17;;;;;;;2.20;1.10;;;;;;;;;;20870310;28;20209;-70
2022/11/07 22:13:18;;;;;;;2.17;1.27;;;;;;;;;;20853285;28;20256;-70
2022/11/07 22:23:20;;;;;;;2.13;1.03;;;;;;;;;;20861432;22;20244;-68
2022/11/07 22:33:22;;;;;;;1.53;0.83;;;;;;;;;;20899765;28;20240;-67
2022/11/07 22:43:24;;;;;;;1.30;0.80;;;;;;;;;;20899633;28;20272;-67
2022/11/07 22:53:26;;;;;;;2.20;1.00;;;;;;;;;;20899303;28;20754;-67
2022/11/07 23:03:28;;;;;;;3.20;0.93;;;;;;;;;;20898678;28;20206;-67
2022/11/07 23:13:29;;;;;;;1.40;0.80;;;;;;;;;;20896674;28;20213;-68
2022/11/07 23:23:31;;;;;;;3.73;1.10;;;;;;;;;;20880051;28;20221;-67
2022/11/07 23:33:35;;;;;;;1.80;0.93;;;;;;;;;;20879721;28;20623;-67
2022/11/07 23:43:37;;;;;;;2.73;1.30;;;;;;;;;;20886111;28;20209;-67
